»·PEaware :: N786SG KSAN-KPHX

N786SG :: KSAN-KPHX

FLIGHT INFORMATION

Flight Status: Arrived
Operator: Privately registered:
United States
More flights under this callsign
Pilot: Sulaiman S. (16428)
Aircraft: BOMBARDIER BD-100 CHALLENGER 300
(CL30)
More flights by this aircraft type
Origin: KSAN San Diego Intl-Lindbergh
United States
Destination: KPHX Phoenix Sky Harbor Intl
United States
More flights between these airports :: More routes between these airports
Route: +ZZOOO1 IPL J18 BZA HOGGZ HYDRR1
File this flight plan on PilotEdge
Remarks:
Altitude:
(Current/Filed)
31,000ft
Speed:
(Current/Filed)
400kts
Departed: 04-Oct-17 02:19 PM
Arrived: 04-Oct-17 03:11 PM
Distance/Time
Traveled:
263nm/0:51
Distance/Time
To Go:
Arrived

Flight Plot

Page will automatically refresh every two minutes.

Flight plan parsing failed; only flown route is shown


Map Options




Map Legend


Flown Route
Filed Route
Departure Airport
Arrival Airport
Navaid (VOR, NDB)
Fix

Horizontal Profiles

Position Reports

Time Latitude Longitude Heading Altitude Ground
Speed
04-Oct-17 14:11 32.732766 -117.178324 58 24ft 0kts
04-Oct-17 14:12 32.732766 -117.178324 58 24ft 0kts
04-Oct-17 14:13 32.732766 -117.178324 58 24ft 0kts
04-Oct-17 14:14 32.732766 -117.178324 58 24ft 0kts
04-Oct-17 14:15 32.732766 -117.178324 58 24ft 0kts
04-Oct-17 14:16 32.732766 -117.178324 58 24ft 0kts
04-Oct-17 14:17 32.732766 -117.178324 58 24ft 0kts
04-Oct-17 14:18 32.732411 -117.178199 199 24ft 2kts
04-Oct-17 14:19 32.731832 -117.177783 108 24ft 3kts
04-Oct-17 14:20 32.731367 -117.176564 119 24ft 4kts
04-Oct-17 14:21 32.730968 -117.175555 133 24ft 0kts
04-Oct-17 14:22 32.730946 -117.175528 133 24ft 0kts
04-Oct-17 14:23 32.731322 -117.180442 285 24ft 103kts
04-Oct-17 14:24 32.743754 -117.232558 286 2137ft 185kts
04-Oct-17 14:25 32.752492 -117.295279 253 6415ft 208kts
04-Oct-17 14:26 32.711119 -117.298916 154 10919ft 225kts
04-Oct-17 14:27 32.645177 -117.252617 142 16271ft 249kts
04-Oct-17 14:28 32.627364 -117.167396 103 20015ft 287kts
04-Oct-17 14:29 32.618526 -117.087181 102 22848ft 307kts
04-Oct-17 14:30 32.604419 -116.940194 94 22987ft 460kts
04-Oct-17 14:31 32.624451 -116.808183 79 22976ft 491kts
04-Oct-17 14:32 32.642152 -116.651216 85 22977ft 479kts
04-Oct-17 14:33 32.657865 -116.490201 85 25681ft 500kts
04-Oct-17 14:34 32.673214 -116.330049 86 27819ft 520kts
04-Oct-17 14:35 32.689532 -116.157304 87 29784ft 537kts
04-Oct-17 14:36 32.706198 -115.978249 87 30941ft 554kts
04-Oct-17 14:37 32.722933 -115.796275 87 30944ft 556kts
04-Oct-17 14:38 32.739412 -115.614379 87 30946ft 551kts
04-Oct-17 14:39 32.750898 -115.435038 92 30948ft 539kts
04-Oct-17 14:40 32.754850 -115.260078 93 30938ft 530kts
04-Oct-17 14:41 32.758678 -115.086267 93 30940ft 523kts
04-Oct-17 14:42 32.762240 -114.914271 93 30917ft 521kts
04-Oct-17 14:43 32.765558 -114.743048 93 30918ft 519kts
04-Oct-17 14:44 32.768521 -114.571821 93 30302ft 520kts
04-Oct-17 14:45 32.770876 -114.400835 92 28268ft 517kts
04-Oct-17 14:46 32.772967 -114.234648 92 26218ft 507kts
04-Oct-17 14:47 32.775651 -114.074651 84 24891ft 450kts
04-Oct-17 14:48 32.790822 -113.927245 85 24915ft 451kts
04-Oct-17 14:49 32.806766 -113.778921 84 24916ft 453kts
04-Oct-17 14:50 32.855705 -113.644627 50 24922ft 455kts
04-Oct-17 14:51 32.935161 -113.530552 47 23865ft 445kts
04-Oct-17 14:52 33.015370 -113.420884 46 22644ft 435kts
04-Oct-17 14:53 33.093733 -113.314693 47 21375ft 424kts
04-Oct-17 14:54 33.170673 -113.210743 47 20013ft 414kts
04-Oct-17 14:55 33.245486 -113.109335 47 18602ft 403kts
04-Oct-17 14:56 33.272313 -112.984250 86 17085ft 390kts
04-Oct-17 14:57 33.278557 -112.856993 88 15516ft 379kts
04-Oct-17 14:58 33.288116 -112.739693 84 15122ft 339kts
04-Oct-17 14:59 33.298639 -112.628168 84 13889ft 333kts
04-Oct-17 15:00 33.308728 -112.519732 83 12625ft 324kts
04-Oct-17 15:01 33.318551 -112.414814 85 11389ft 310kts
04-Oct-17 15:02 33.327270 -112.319032 86 10993ft 267kts
04-Oct-17 15:03 33.334971 -112.233717 86 10146ft 255kts
04-Oct-17 15:04 33.342447 -112.150328 86 9013ft 250kts
04-Oct-17 15:05 33.346822 -112.075505 90 8657ft 216kts
04-Oct-17 15:06 33.346125 -111.996066 89 6984ft 250kts
04-Oct-17 15:07 33.345953 -111.913214 88 7000ft 243kts
04-Oct-17 15:08 33.347063 -111.834111 88 6594ft 233kts
04-Oct-17 15:09 33.367623 -111.771235 2 5140ft 222kts
04-Oct-17 15:10 33.418261 -111.797411 290 4023ft 194kts
04-Oct-17 15:11 33.434105 -111.853799 271 4000ft 176kts
04-Oct-17 15:12 33.429638 -111.909660 266 3533ft 160kts
04-Oct-17 15:13 33.428592 -111.958797 269 2236ft 145kts
04-Oct-17 15:14 33.428836 -112.003135 268 1141ft 109kts
04-Oct-17 15:15 33.429019 -112.016370 310 1140ft 3kts
04-Oct-17 15:16 33.429538 -112.016581 358 1141ft 1kts
04-Oct-17 15:17 33.429104 -112.021558 192 1141ft 18kts
04-Oct-17 15:18 33.426909 -112.021070 178 1140ft 7kts
04-Oct-17 15:19 33.426009 -112.021001 139 1141ft 0kts
04-Oct-17 15:20 33.427022 -112.019482 34 1141ft 22kts
04-Oct-17 15:21 33.432902 -112.016554 8 1141ft 22kts
04-Oct-17 15:22 33.441091 -112.017471 341 1141ft 36kts
04-Oct-17 15:23 33.447126 -112.021257 326 1130ft 12kts
04-Oct-17 15:24 33.449116 -112.022897 324 1121ft 0kts
04-Oct-17 15:25 33.449164 -112.022938 324 1121ft 0kts
04-Oct-17 15:26 33.449730 -112.023420 324 1118ft 0kts

Navigation Log

Ident Type
Flight plan parsing failed, navigation log unavailable